Terminal Aerodrome Forecast
Issued by NWS

Home | Current Version | Previous Version | Text Only | Print | Product List | Glossary On
Versions: 1 2 3 4 5 6 7 8 9 10 11 12 13
000
FTUS46 KSTO 281727
TAFRDD
TAF
KRDD 281727Z 2818/2918 36012G18KT P6SM SKC
     FM282300 36009KT P6SM SKC
     FM291500 36012KT P6SM SKC=

USA.gov is the U.S. government's official web portal to all federal, state and local government web resources and services.